sensor_id;sensor_type;location;lat;lon;timestamp;P1;durP1;ratioP1;P2;durP2;ratioP2
13067;SDS011;6600;51.362;6.686;2023-02-20T00:01:28;1.67;;;1.57;;
13067;SDS011;6600;51.362;6.686;2023-02-20T00:03:54;1.53;;;1.40;;
13067;SDS011;6600;51.362;6.686;2023-02-20T00:06:20;3.93;;;1.40;;
13067;SDS011;6600;51.362;6.686;2023-02-20T00:08:45;2.70;;;1.97;;
13067;SDS011;6600;51.362;6.686;2023-02-20T00:11:11;2.10;;;1.40;;
13067;SDS011;6600;51.362;6.686;2023-02-20T00:13:36;2.63;;;1.57;;
13067;SDS011;6600;51.362;6.686;2023-02-20T00:16:02;2.90;;;1.60;;
13067;SDS011;6600;51.362;6.686;2023-02-20T00:18:27;1.43;;;1.33;;
13067;SDS011;6600;51.362;6.686;2023-02-20T00:20:53;2.40;;;1.50;;
13067;SDS011;6600;51.362;6.686;2023-02-20T00:23:18;2.57;;;1.13;;
13067;SDS011;6600;51.362;6.686;2023-02-20T00:25:44;2.47;;;1.40;;
13067;SDS011;6600;51.362;6.686;2023-02-20T00:28:09;0.97;;;0.87;;
13067;SDS011;6600;51.362;6.686;2023-02-20T00:30:35;2.67;;;1.13;;
13067;SDS011;6600;51.362;6.686;2023-02-20T00:33:00;2.23;;;1.17;;
13067;SDS011;6600;51.362;6.686;2023-02-20T00:35:26;2.10;;;1.83;;
13067;SDS011;6600;51.362;6.686;2023-02-20T00:37:51;2.93;;;1.57;;
13067;SDS011;6600;51.362;6.686;2023-02-20T00:40:19;2.30;;;1.60;;
13067;SDS011;6600;51.362;6.686;2023-02-20T00:42:46;2.97;;;1.70;;
13067;SDS011;6600;51.362;6.686;2023-02-20T00:45:13;2.23;;;1.90;;
13067;SDS011;6600;51.362;6.686;2023-02-20T00:47:39;2.43;;;1.40;;
13067;SDS011;6600;51.362;6.686;2023-02-20T00:50:05;2.20;;;2.10;;
13067;SDS011;6600;51.362;6.686;2023-02-20T00:52:31;3.47;;;1.77;;
13067;SDS011;6600;51.362;6.686;2023-02-20T00:54:57;1.37;;;1.20;;
13067;SDS011;6600;51.362;6.686;2023-02-20T00:57:22;3.73;;;1.87;;
13067;SDS011;6600;51.362;6.686;2023-02-20T00:59:48;2.53;;;1.93;;
13067;SDS011;6600;51.362;6.686;2023-02-20T01:02:13;2.33;;;1.47;;
13067;SDS011;6600;51.362;6.686;2023-02-20T01:04:39;3.73;;;2.20;;
13067;SDS011;6600;51.362;6.686;2023-02-20T01:07:07;2.37;;;1.67;;
13067;SDS011;6600;51.362;6.686;2023-02-20T01:09:32;3.47;;;2.23;;
13067;SDS011;6600;51.362;6.686;2023-02-20T01:11:58;4.13;;;1.77;;
13067;SDS011;6600;51.362;6.686;2023-02-20T01:14:23;3.40;;;2.57;;
13067;SDS011;6600;51.362;6.686;2023-02-20T01:16:49;1.67;;;1.57;;
13067;SDS011;6600;51.362;6.686;2023-02-20T01:19:17;4.77;;;2.50;;
13067;SDS011;6600;51.362;6.686;2023-02-20T01:21:42;6.93;;;2.57;;
13067;SDS011;6600;51.362;6.686;2023-02-20T01:24:08;6.63;;;2.70;;
13067;SDS011;6600;51.362;6.686;2023-02-20T01:26:33;2.70;;;1.87;;
13067;SDS011;6600;51.362;6.686;2023-02-20T01:29:00;2.63;;;1.83;;
13067;SDS011;6600;51.362;6.686;2023-02-20T01:31:26;2.53;;;1.63;;
13067;SDS011;6600;51.362;6.686;2023-02-20T01:33:51;4.87;;;2.23;;
13067;SDS011;6600;51.362;6.686;2023-02-20T01:36:17;3.07;;;2.20;;
13067;SDS011;6600;51.362;6.686;2023-02-20T01:38:42;5.43;;;1.70;;
13067;SDS011;6600;51.362;6.686;2023-02-20T01:41:08;4.37;;;2.17;;
13067;SDS011;6600;51.362;6.686;2023-02-20T01:43:34;4.27;;;2.63;;
13067;SDS011;6600;51.362;6.686;2023-02-20T01:48:50;3.87;;;2.63;;
13067;SDS011;6600;51.362;6.686;2023-02-20T01:51:16;4.47;;;3.33;;
13067;SDS011;6600;51.362;6.686;2023-02-20T01:53:42;6.97;;;2.87;;
13067;SDS011;6600;51.362;6.686;2023-02-20T01:56:07;3.37;;;1.97;;
13067;SDS011;6600;51.362;6.686;2023-02-20T01:58:35;3.40;;;2.03;;
13067;SDS011;6600;51.362;6.686;2023-02-20T02:01:06;5.17;;;2.53;;
13067;SDS011;6600;51.362;6.686;2023-02-20T02:03:32;2.17;;;1.77;;
13067;SDS011;6600;51.362;6.686;2023-02-20T02:06:02;3.83;;;1.83;;
13067;SDS011;6600;51.362;6.686;2023-02-20T02:08:31;4.27;;;2.20;;
13067;SDS011;6600;51.362;6.686;2023-02-20T02:11:05;3.40;;;1.93;;
13067;SDS011;6600;51.362;6.686;2023-02-20T02:13:34;5.20;;;2.30;;
13067;SDS011;6600;51.362;6.686;2023-02-20T02:19:03;2.53;;;2.33;;
13067;SDS011;6600;51.362;6.686;2023-02-20T02:22:44;6.03;;;1.93;;
13067;SDS011;6600;51.362;6.686;2023-02-20T02:38:32;3.53;;;2.73;;
13067;SDS011;6600;51.362;6.686;2023-02-20T02:41:05;7.67;;;2.77;;
13067;SDS011;6600;51.362;6.686;2023-02-20T02:46:21;3.97;;;2.40;;
13067;SDS011;6600;51.362;6.686;2023-02-20T02:49:09;3.63;;;2.00;;
13067;SDS011;6600;51.362;6.686;2023-02-20T02:51:41;5.90;;;3.67;;
13067;SDS011;6600;51.362;6.686;2023-02-20T02:54:13;5.33;;;2.53;;
13067;SDS011;6600;51.362;6.686;2023-02-20T02:56:42;5.10;;;2.87;;
13067;SDS011;6600;51.362;6.686;2023-02-20T02:59:11;5.67;;;2.33;;
13067;SDS011;6600;51.362;6.686;2023-02-20T03:01:42;3.73;;;2.10;;
13067;SDS011;6600;51.362;6.686;2023-02-20T03:04:12;3.73;;;3.23;;
13067;SDS011;6600;51.362;6.686;2023-02-20T03:06:41;6.57;;;3.03;;
13067;SDS011;6600;51.362;6.686;2023-02-20T03:09:14;6.43;;;2.13;;
13067;SDS011;6600;51.362;6.686;2023-02-20T03:11:44;4.50;;;2.20;;
13067;SDS011;6600;51.362;6.686;2023-02-20T03:14:57;3.03;;;2.17;;
13067;SDS011;6600;51.362;6.686;2023-02-20T03:20:15;3.37;;;2.27;;
13067;SDS011;6600;51.362;6.686;2023-02-20T03:22:45;6.00;;;2.30;;
13067;SDS011;6600;51.362;6.686;2023-02-20T03:25:33;3.63;;;2.27;;
13067;SDS011;6600;51.362;6.686;2023-02-20T03:31:03;7.07;;;3.03;;
13067;SDS011;6600;51.362;6.686;2023-02-20T03:33:37;4.10;;;2.30;;
13067;SDS011;6600;51.362;6.686;2023-02-20T03:36:35;3.63;;;2.30;;
13067;SDS011;6600;51.362;6.686;2023-02-20T03:39:25;6.03;;;2.53;;
13067;SDS011;6600;51.362;6.686;2023-02-20T03:42:14;4.37;;;3.40;;
13067;SDS011;6600;51.362;6.686;2023-02-20T03:45:01;2.73;;;1.80;;
13067;SDS011;6600;51.362;6.686;2023-02-20T03:47:29;3.00;;;1.97;;
13067;SDS011;6600;51.362;6.686;2023-02-20T03:49:57;4.27;;;2.27;;
13067;SDS011;6600;51.362;6.686;2023-02-20T03:52:25;2.10;;;1.90;;
13067;SDS011;6600;51.362;6.686;2023-02-20T03:54:51;3.20;;;2.00;;
13067;SDS011;6600;51.362;6.686;2023-02-20T03:57:17;2.47;;;1.57;;
13067;SDS011;6600;51.362;6.686;2023-02-20T03:59:57;5.70;;;2.20;;
13067;SDS011;6600;51.362;6.686;2023-02-20T04:02:36;8.57;;;1.93;;
13067;SDS011;6600;51.362;6.686;2023-02-20T04:05:07;3.93;;;1.97;;
13067;SDS011;6600;51.362;6.686;2023-02-20T04:10:38;2.13;;;1.30;;
13067;SDS011;6600;51.362;6.686;2023-02-20T04:13:08;4.27;;;1.73;;
13067;SDS011;6600;51.362;6.686;2023-02-20T04:15:36;4.13;;;1.77;;
13067;SDS011;6600;51.362;6.686;2023-02-20T04:20:28;3.33;;;2.23;;
13067;SDS011;6600;51.362;6.686;2023-02-20T04:22:54;3.70;;;1.60;;
13067;SDS011;6600;51.362;6.686;2023-02-20T04:25:29;5.73;;;1.87;;
13067;SDS011;6600;51.362;6.686;2023-02-20T04:28:01;2.83;;;1.37;;
13067;SDS011;6600;51.362;6.686;2023-02-20T04:30:28;2.63;;;1.93;;
13067;SDS011;6600;51.362;6.686;2023-02-20T04:32:53;3.40;;;1.37;;
13067;SDS011;6600;51.362;6.686;2023-02-20T04:35:19;3.83;;;1.93;;
13067;SDS011;6600;51.362;6.686;2023-02-20T04:37:45;1.97;;;1.20;;
13067;SDS011;6600;51.362;6.686;2023-02-20T04:40:12;2.83;;;2.03;;
13067;SDS011;6600;51.362;6.686;2023-02-20T04:42:38;1.33;;;1.00;;
13067;SDS011;6600;51.362;6.686;2023-02-20T04:45:04;2.50;;;1.40;;
13067;SDS011;6600;51.362;6.686;2023-02-20T04:47:29;2.00;;;1.40;;
13067;SDS011;6600;51.362;6.686;2023-02-20T04:49:55;3.23;;;2.40;;
13067;SDS011;6600;51.362;6.686;2023-02-20T04:52:20;0.93;;;0.83;;
13067;SDS011;6600;51.362;6.686;2023-02-20T04:54:46;2.80;;;1.53;;
13067;SDS011;6600;51.362;6.686;2023-02-20T04:57:12;2.53;;;1.40;;
13067;SDS011;6600;51.362;6.686;2023-02-20T04:59:37;3.90;;;1.93;;
13067;SDS011;6600;51.362;6.686;2023-02-20T05:02:03;1.40;;;1.30;;
13067;SDS011;6600;51.362;6.686;2023-02-20T05:04:28;3.07;;;2.00;;
13067;SDS011;6600;51.362;6.686;2023-02-20T05:06:54;2.33;;;1.23;;
13067;SDS011;6600;51.362;6.686;2023-02-20T05:09:20;1.60;;;1.27;;
13067;SDS011;6600;51.362;6.686;2023-02-20T05:11:46;2.47;;;1.67;;
13067;SDS011;6600;51.362;6.686;2023-02-20T05:14:11;1.53;;;1.27;;
13067;SDS011;6600;51.362;6.686;2023-02-20T05:16:37;4.00;;;1.27;;
13067;SDS011;6600;51.362;6.686;2023-02-20T05:19:04;3.17;;;1.50;;
13067;SDS011;6600;51.362;6.686;2023-02-20T05:21:29;1.50;;;1.40;;
13067;SDS011;6600;51.362;6.686;2023-02-20T05:24:13;2.30;;;1.33;;
13067;SDS011;6600;51.362;6.686;2023-02-20T05:26:39;1.57;;;1.20;;
13067;SDS011;6600;51.362;6.686;2023-02-20T05:29:05;4.33;;;1.10;;
13067;SDS011;6600;51.362;6.686;2023-02-20T05:31:31;2.70;;;1.90;;
13067;SDS011;6600;51.362;6.686;2023-02-20T05:33:56;2.90;;;1.70;;
13067;SDS011;6600;51.362;6.686;2023-02-20T05:36:21;5.83;;;1.90;;
13067;SDS011;6600;51.362;6.686;2023-02-20T05:38:47;2.13;;;1.60;;
13067;SDS011;6600;51.362;6.686;2023-02-20T05:41:16;2.40;;;1.07;;
13067;SDS011;6600;51.362;6.686;2023-02-20T05:43:42;3.07;;;2.10;;
13067;SDS011;6600;51.362;6.686;2023-02-20T05:46:07;4.17;;;1.83;;
13067;SDS011;6600;51.362;6.686;2023-02-20T05:48:33;3.13;;;1.73;;
13067;SDS011;6600;51.362;6.686;2023-02-20T05:50:58;16.93;;;2.40;;
13067;SDS011;6600;51.362;6.686;2023-02-20T05:53:26;5.60;;;2.97;;
13067;SDS011;6600;51.362;6.686;2023-02-20T05:55:53;5.13;;;2.10;;
13067;SDS011;6600;51.362;6.686;2023-02-20T05:58:18;2.20;;;1.97;;
13067;SDS011;6600;51.362;6.686;2023-02-20T06:00:43;3.50;;;2.03;;
13067;SDS011;6600;51.362;6.686;2023-02-20T06:03:09;3.60;;;1.97;;
13067;SDS011;6600;51.362;6.686;2023-02-20T06:05:34;4.27;;;1.87;;
13067;SDS011;6600;51.362;6.686;2023-02-20T06:08:00;2.37;;;2.00;;
13067;SDS011;6600;51.362;6.686;2023-02-20T06:10:25;5.77;;;1.97;;
13067;SDS011;6600;51.362;6.686;2023-02-20T06:12:51;4.90;;;2.17;;
13067;SDS011;6600;51.362;6.686;2023-02-20T06:15:16;3.57;;;1.87;;
13067;SDS011;6600;51.362;6.686;2023-02-20T06:17:41;2.80;;;1.90;;
13067;SDS011;6600;51.362;6.686;2023-02-20T06:20:07;2.97;;;2.17;;
13067;SDS011;6600;51.362;6.686;2023-02-20T06:22:32;5.50;;;2.23;;
13067;SDS011;6600;51.362;6.686;2023-02-20T06:24:58;4.30;;;1.83;;
13067;SDS011;6600;51.362;6.686;2023-02-20T06:27:23;3.90;;;2.33;;
13067;SDS011;6600;51.362;6.686;2023-02-20T06:29:48;3.50;;;1.87;;
13067;SDS011;6600;51.362;6.686;2023-02-20T06:32:14;10.43;;;2.83;;
13067;SDS011;6600;51.362;6.686;2023-02-20T06:34:40;3.50;;;2.07;;
13067;SDS011;6600;51.362;6.686;2023-02-20T06:37:05;4.43;;;3.07;;
13067;SDS011;6600;51.362;6.686;2023-02-20T06:39:31;4.10;;;2.67;;
13067;SDS011;6600;51.362;6.686;2023-02-20T06:41:57;3.00;;;2.50;;
13067;SDS011;6600;51.362;6.686;2023-02-20T06:44:22;2.57;;;2.27;;
13067;SDS011;6600;51.362;6.686;2023-02-20T06:46:48;5.43;;;3.00;;
13067;SDS011;6600;51.362;6.686;2023-02-20T06:49:13;7.10;;;2.90;;
13067;SDS011;6600;51.362;6.686;2023-02-20T06:51:39;5.37;;;3.07;;
13067;SDS011;6600;51.362;6.686;2023-02-20T06:54:05;5.27;;;3.20;;
13067;SDS011;6600;51.362;6.686;2023-02-20T06:56:32;6.47;;;3.83;;
13067;SDS011;6600;51.362;6.686;2023-02-20T06:58:59;5.43;;;3.37;;
13067;SDS011;6600;51.362;6.686;2023-02-20T07:01:27;4.90;;;2.97;;
13067;SDS011;6600;51.362;6.686;2023-02-20T07:03:55;5.30;;;3.23;;
13067;SDS011;6600;51.362;6.686;2023-02-20T07:06:22;5.37;;;2.73;;
13067;SDS011;6600;51.362;6.686;2023-02-20T07:08:48;4.93;;;2.93;;
13067;SDS011;6600;51.362;6.686;2023-02-20T07:11:15;4.33;;;3.00;;
13067;SDS011;6600;51.362;6.686;2023-02-20T07:13:42;8.33;;;3.00;;
13067;SDS011;6600;51.362;6.686;2023-02-20T07:16:08;6.00;;;2.63;;
13067;SDS011;6600;51.362;6.686;2023-02-20T07:18:33;5.57;;;3.13;;
13067;SDS011;6600;51.362;6.686;2023-02-20T07:20:58;6.23;;;2.97;;
13067;SDS011;6600;51.362;6.686;2023-02-20T07:23:24;4.20;;;2.47;;
13067;SDS011;6600;51.362;6.686;2023-02-20T07:25:50;4.53;;;2.23;;
13067;SDS011;6600;51.362;6.686;2023-02-20T07:28:16;5.17;;;2.80;;
13067;SDS011;6600;51.362;6.686;2023-02-20T07:30:42;4.43;;;2.67;;
13067;SDS011;6600;51.362;6.686;2023-02-20T07:33:08;4.00;;;3.10;;
13067;SDS011;6600;51.362;6.686;2023-02-20T07:35:33;5.97;;;2.97;;
13067;SDS011;6600;51.362;6.686;2023-02-20T07:37:59;4.47;;;2.23;;
13067;SDS011;6600;51.362;6.686;2023-02-20T07:40:24;6.73;;;3.53;;
13067;SDS011;6600;51.362;6.686;2023-02-20T07:42:49;4.57;;;2.37;;
13067;SDS011;6600;51.362;6.686;2023-02-20T07:45:14;8.13;;;3.17;;
13067;SDS011;6600;51.362;6.686;2023-02-20T07:47:40;3.60;;;2.17;;
13067;SDS011;6600;51.362;6.686;2023-02-20T07:50:05;5.53;;;3.13;;
13067;SDS011;6600;51.362;6.686;2023-02-20T07:52:31;3.60;;;2.93;;
13067;SDS011;6600;51.362;6.686;2023-02-20T07:54:56;7.33;;;3.30;;
13067;SDS011;6600;51.362;6.686;2023-02-20T07:57:21;6.00;;;2.97;;
13067;SDS011;6600;51.362;6.686;2023-02-20T07:59:47;4.37;;;2.83;;
13067;SDS011;6600;51.362;6.686;2023-02-20T08:02:12;6.77;;;3.37;;
13067;SDS011;6600;51.362;6.686;2023-02-20T08:04:37;5.40;;;2.67;;
13067;SDS011;6600;51.362;6.686;2023-02-20T08:07:03;5.20;;;2.87;;
13067;SDS011;6600;51.362;6.686;2023-02-20T08:09:30;2.80;;;2.07;;
13067;SDS011;6600;51.362;6.686;2023-02-20T08:11:56;6.30;;;2.60;;
13067;SDS011;6600;51.362;6.686;2023-02-20T08:14:21;4.10;;;2.40;;
13067;SDS011;6600;51.362;6.686;2023-02-20T08:16:46;3.13;;;2.57;;
13067;SDS011;6600;51.362;6.686;2023-02-20T08:19:12;8.00;;;2.93;;
13067;SDS011;6600;51.362;6.686;2023-02-20T08:21:37;3.47;;;2.07;;
13067;SDS011;6600;51.362;6.686;2023-02-20T08:24:02;3.70;;;3.23;;
13067;SDS011;6600;51.362;6.686;2023-02-20T08:26:28;3.97;;;2.60;;
13067;SDS011;6600;51.362;6.686;2023-02-20T08:28:54;3.27;;;2.37;;
13067;SDS011;6600;51.362;6.686;2023-02-20T08:31:19;9.53;;;2.47;;
13067;SDS011;6600;51.362;6.686;2023-02-20T08:33:46;7.13;;;3.10;;
13067;SDS011;6600;51.362;6.686;2023-02-20T08:36:11;7.93;;;2.73;;
13067;SDS011;6600;51.362;6.686;2023-02-20T08:38:39;6.53;;;3.23;;
13067;SDS011;6600;51.362;6.686;2023-02-20T08:41:05;4.27;;;2.70;;
13067;SDS011;6600;51.362;6.686;2023-02-20T08:43:36;3.50;;;2.37;;
13067;SDS011;6600;51.362;6.686;2023-02-20T08:46:03;3.77;;;2.83;;
13067;SDS011;6600;51.362;6.686;2023-02-20T08:48:29;6.87;;;3.07;;
13067;SDS011;6600;51.362;6.686;2023-02-20T08:50:54;4.77;;;2.57;;
13067;SDS011;6600;51.362;6.686;2023-02-20T08:53:20;6.47;;;2.90;;
13067;SDS011;6600;51.362;6.686;2023-02-20T08:55:46;3.97;;;1.97;;
13067;SDS011;6600;51.362;6.686;2023-02-20T08:58:11;6.50;;;2.40;;
13067;SDS011;6600;51.362;6.686;2023-02-20T09:00:37;5.37;;;2.17;;
13067;SDS011;6600;51.362;6.686;2023-02-20T09:03:03;4.30;;;3.03;;
13067;SDS011;6600;51.362;6.686;2023-02-20T09:05:31;5.27;;;2.67;;
13067;SDS011;6600;51.362;6.686;2023-02-20T09:07:58;4.60;;;2.73;;
13067;SDS011;6600;51.362;6.686;2023-02-20T09:10:23;5.13;;;2.80;;
13067;SDS011;6600;51.362;6.686;2023-02-20T09:12:49;4.57;;;2.93;;
13067;SDS011;6600;51.362;6.686;2023-02-20T09:15:14;4.03;;;2.37;;
13067;SDS011;6600;51.362;6.686;2023-02-20T09:17:42;7.50;;;3.73;;
13067;SDS011;6600;51.362;6.686;2023-02-20T09:20:09;5.43;;;2.97;;
13067;SDS011;6600;51.362;6.686;2023-02-20T09:22:35;8.70;;;2.57;;
13067;SDS011;6600;51.362;6.686;2023-02-20T09:25:01;4.00;;;2.27;;
13067;SDS011;6600;51.362;6.686;2023-02-20T09:27:27;2.53;;;2.13;;
13067;SDS011;6600;51.362;6.686;2023-02-20T09:29:52;7.13;;;2.33;;
13067;SDS011;6600;51.362;6.686;2023-02-20T09:32:18;4.57;;;2.53;;
13067;SDS011;6600;51.362;6.686;2023-02-20T09:34:43;4.10;;;2.60;;
13067;SDS011;6600;51.362;6.686;2023-02-20T09:37:09;3.63;;;2.33;;
13067;SDS011;6600;51.362;6.686;2023-02-20T09:39:35;4.60;;;2.63;;
13067;SDS011;6600;51.362;6.686;2023-02-20T09:45:10;7.03;;;2.67;;
13067;SDS011;6600;51.362;6.686;2023-02-20T09:47:45;3.40;;;2.20;;
13067;SDS011;6600;51.362;6.686;2023-02-20T09:50:36;2.63;;;1.97;;
13067;SDS011;6600;51.362;6.686;2023-02-20T09:53:15;2.87;;;1.97;;
13067;SDS011;6600;51.362;6.686;2023-02-20T09:55:48;3.03;;;2.30;;
13067;SDS011;6600;51.362;6.686;2023-02-20T09:58:25;4.10;;;2.50;;
13067;SDS011;6600;51.362;6.686;2023-02-20T10:00:59;2.10;;;1.90;;
13067;SDS011;6600;51.362;6.686;2023-02-20T10:03:29;7.90;;;2.67;;
13067;SDS011;6600;51.362;6.686;2023-02-20T10:06:02;6.13;;;2.77;;
13067;SDS011;6600;51.362;6.686;2023-02-20T10:08:37;2.87;;;2.30;;
13067;SDS011;6600;51.362;6.686;2023-02-20T10:11:03;4.33;;;2.23;;
13067;SDS011;6600;51.362;6.686;2023-02-20T10:27:03;3.73;;;2.33;;
13067;SDS011;6600;51.362;6.686;2023-02-20T10:30:06;2.70;;;1.60;;
13067;SDS011;6600;51.362;6.686;2023-02-20T10:32:41;4.30;;;2.40;;
13067;SDS011;6600;51.362;6.686;2023-02-20T10:35:32;4.50;;;2.53;;
13067;SDS011;6600;51.362;6.686;2023-02-20T10:38:06;3.70;;;2.87;;
13067;SDS011;6600;51.362;6.686;2023-02-20T10:40:36;4.20;;;2.23;;
13067;SDS011;6600;51.362;6.686;2023-02-20T10:44:07;4.13;;;2.93;;
13067;SDS011;6600;51.362;6.686;2023-02-20T10:46:58;4.63;;;2.37;;
13067;SDS011;6600;51.362;6.686;2023-02-20T10:49:21;3.83;;;2.20;;
13067;SDS011;6600;51.362;6.686;2023-02-20T10:52:13;6.30;;;2.53;;
13067;SDS011;6600;51.362;6.686;2023-02-20T10:54:53;2.27;;;2.03;;
13067;SDS011;6600;51.362;6.686;2023-02-20T10:57:29;4.17;;;2.40;;
13067;SDS011;6600;51.362;6.686;2023-02-20T11:02:45;2.80;;;2.30;;
13067;SDS011;6600;51.362;6.686;2023-02-20T11:05:17;4.17;;;2.30;;
13067;SDS011;6600;51.362;6.686;2023-02-20T11:07:47;4.70;;;2.83;;
13067;SDS011;6600;51.362;6.686;2023-02-20T11:10:13;6.33;;;3.03;;
13067;SDS011;6600;51.362;6.686;2023-02-20T11:12:43;4.83;;;2.53;;
13067;SDS011;6600;51.362;6.686;2023-02-20T11:15:13;3.53;;;3.23;;
13067;SDS011;6600;51.362;6.686;2023-02-20T11:17:42;5.33;;;2.40;;
13067;SDS011;6600;51.362;6.686;2023-02-20T11:20:36;3.47;;;2.27;;
13067;SDS011;6600;51.362;6.686;2023-02-20T11:23:05;4.50;;;2.10;;
13067;SDS011;6600;51.362;6.686;2023-02-20T11:25:34;4.60;;;2.73;;
13067;SDS011;6600;51.362;6.686;2023-02-20T11:30:47;3.60;;;2.57;;
13067;SDS011;6600;51.362;6.686;2023-02-20T11:35:46;3.80;;;2.80;;
13067;SDS011;6600;51.362;6.686;2023-02-20T11:40:46;5.07;;;2.50;;
13067;SDS011;6600;51.362;6.686;2023-02-20T11:46:06;3.40;;;1.90;;
13067;SDS011;6600;51.362;6.686;2023-02-20T11:51:30;3.90;;;2.77;;
13067;SDS011;6600;51.362;6.686;2023-02-20T11:56:33;7.00;;;2.73;;
13067;SDS011;6600;51.362;6.686;2023-02-20T12:04:35;5.93;;;2.37;;
13067;SDS011;6600;51.362;6.686;2023-02-20T12:07:00;2.63;;;1.93;;
13067;SDS011;6600;51.362;6.686;2023-02-20T12:09:43;5.10;;;2.47;;
13067;SDS011;6600;51.362;6.686;2023-02-20T12:12:11;3.67;;;2.80;;
13067;SDS011;6600;51.362;6.686;2023-02-20T12:14:38;5.27;;;2.13;;
13067;SDS011;6600;51.362;6.686;2023-02-20T12:17:12;4.80;;;2.23;;
13067;SDS011;6600;51.362;6.686;2023-02-20T12:20:08;5.10;;;2.60;;
13067;SDS011;6600;51.362;6.686;2023-02-20T12:22:41;4.33;;;2.37;;
13067;SDS011;6600;51.362;6.686;2023-02-20T12:25:23;5.27;;;3.20;;
13067;SDS011;6600;51.362;6.686;2023-02-20T12:44:26;4.40;;;3.40;;
13067;SDS011;6600;51.362;6.686;2023-02-20T13:01:00;5.20;;;2.67;;
13067;SDS011;6600;51.362;6.686;2023-02-20T13:06:32;6.87;;;3.27;;
13067;SDS011;6600;51.362;6.686;2023-02-20T13:09:20;5.17;;;2.13;;
13067;SDS011;6600;51.362;6.686;2023-02-20T13:11:48;3.90;;;2.17;;
13067;SDS011;6600;51.362;6.686;2023-02-20T13:19:49;3.13;;;2.83;;
13067;SDS011;6600;51.362;6.686;2023-02-20T13:22:22;6.03;;;2.50;;
13067;SDS011;6600;51.362;6.686;2023-02-20T13:24:47;7.70;;;2.77;;
13067;SDS011;6600;51.362;6.686;2023-02-20T13:27:29;5.40;;;2.07;;
13067;SDS011;6600;51.362;6.686;2023-02-20T13:30:00;7.27;;;2.80;;
13067;SDS011;6600;51.362;6.686;2023-02-20T13:32:43;4.37;;;2.47;;
13067;SDS011;6600;51.362;6.686;2023-02-20T13:38:15;5.17;;;3.57;;
13067;SDS011;6600;51.362;6.686;2023-02-20T13:56:15;7.20;;;3.17;;
13067;SDS011;6600;51.362;6.686;2023-02-20T13:58:45;7.97;;;2.70;;
13067;SDS011;6600;51.362;6.686;2023-02-20T14:01:11;6.10;;;2.43;;
13067;SDS011;6600;51.362;6.686;2023-02-20T14:03:36;4.60;;;2.70;;
13067;SDS011;6600;51.362;6.686;2023-02-20T14:08:44;4.97;;;2.27;;
13067;SDS011;6600;51.362;6.686;2023-02-20T14:13:39;4.60;;;3.00;;
13067;SDS011;6600;51.362;6.686;2023-02-20T14:19:13;4.13;;;2.47;;
13067;SDS011;6600;51.362;6.686;2023-02-20T14:21:44;9.23;;;3.27;;
13067;SDS011;6600;51.362;6.686;2023-02-20T14:26:52;7.40;;;3.27;;
13067;SDS011;6600;51.362;6.686;2023-02-20T14:31:54;4.67;;;2.80;;
13067;SDS011;6600;51.362;6.686;2023-02-20T14:34:35;10.30;;;2.90;;
13067;SDS011;6600;51.362;6.686;2023-02-20T14:42:28;5.20;;;3.03;;
13067;SDS011;6600;51.362;6.686;2023-02-20T14:44:59;4.67;;;2.63;;
13067;SDS011;6600;51.362;6.686;2023-02-20T14:47:27;5.87;;;2.80;;
13067;SDS011;6600;51.362;6.686;2023-02-20T14:49:53;4.73;;;3.07;;
13067;SDS011;6600;51.362;6.686;2023-02-20T14:52:22;3.93;;;2.70;;
13067;SDS011;6600;51.362;6.686;2023-02-20T14:54:55;5.67;;;2.53;;
13067;SDS011;6600;51.362;6.686;2023-02-20T14:57:22;3.27;;;2.20;;
13067;SDS011;6600;51.362;6.686;2023-02-20T14:59:48;5.10;;;2.20;;
13067;SDS011;6600;51.362;6.686;2023-02-20T15:02:19;4.17;;;2.67;;
13067;SDS011;6600;51.362;6.686;2023-02-20T15:04:49;5.53;;;2.47;;
13067;SDS011;6600;51.362;6.686;2023-02-20T15:07:21;10.97;;;2.57;;
13067;SDS011;6600;51.362;6.686;2023-02-20T15:09:50;3.07;;;2.13;;
13067;SDS011;6600;51.362;6.686;2023-02-20T15:12:20;3.57;;;2.17;;
13067;SDS011;6600;51.362;6.686;2023-02-20T15:15:07;7.87;;;3.53;;
13067;SDS011;6600;51.362;6.686;2023-02-20T15:17:38;5.87;;;2.73;;
13067;SDS011;6600;51.362;6.686;2023-02-20T15:20:18;3.13;;;2.40;;
13067;SDS011;6600;51.362;6.686;2023-02-20T15:25:52;4.03;;;2.57;;
13067;SDS011;6600;51.362;6.686;2023-02-20T15:33:34;9.30;;;2.67;;
13067;SDS011;6600;51.362;6.686;2023-02-20T15:36:02;4.00;;;2.50;;
13067;SDS011;6600;51.362;6.686;2023-02-20T15:38:29;4.83;;;2.40;;
13067;SDS011;6600;51.362;6.686;2023-02-20T15:40:57;4.77;;;2.87;;
13067;SDS011;6600;51.362;6.686;2023-02-20T15:43:23;5.43;;;3.03;;
13067;SDS011;6600;51.362;6.686;2023-02-20T15:45:49;4.23;;;2.37;;
13067;SDS011;6600;51.362;6.686;2023-02-20T15:48:14;6.03;;;2.67;;
13067;SDS011;6600;51.362;6.686;2023-02-20T15:50:40;5.03;;;3.13;;
13067;SDS011;6600;51.362;6.686;2023-02-20T15:53:06;5.83;;;2.87;;
13067;SDS011;6600;51.362;6.686;2023-02-20T15:55:33;4.20;;;2.53;;
13067;SDS011;6600;51.362;6.686;2023-02-20T15:57:59;4.10;;;2.70;;
13067;SDS011;6600;51.362;6.686;2023-02-20T16:00:27;4.83;;;2.60;;
13067;SDS011;6600;51.362;6.686;2023-02-20T16:02:57;3.13;;;2.27;;
13067;SDS011;6600;51.362;6.686;2023-02-20T16:05:25;4.03;;;2.73;;
13067;SDS011;6600;51.362;6.686;2023-02-20T16:07:51;3.57;;;2.77;;
13067;SDS011;6600;51.362;6.686;2023-02-20T16:10:18;3.47;;;2.43;;
13067;SDS011;6600;51.362;6.686;2023-02-20T16:12:44;6.47;;;3.07;;
13067;SDS011;6600;51.362;6.686;2023-02-20T16:15:15;5.10;;;2.30;;
13067;SDS011;6600;51.362;6.686;2023-02-20T16:17:42;4.33;;;2.30;;
13067;SDS011;6600;51.362;6.686;2023-02-20T16:20:12;5.73;;;2.93;;
13067;SDS011;6600;51.362;6.686;2023-02-20T16:22:42;5.00;;;2.73;;
13067;SDS011;6600;51.362;6.686;2023-02-20T16:25:09;4.87;;;3.03;;
13067;SDS011;6600;51.362;6.686;2023-02-20T16:27:36;4.43;;;2.57;;
13067;SDS011;6600;51.362;6.686;2023-02-20T16:30:02;5.63;;;3.53;;
13067;SDS011;6600;51.362;6.686;2023-02-20T16:32:28;7.53;;;2.77;;
13067;SDS011;6600;51.362;6.686;2023-02-20T16:34:55;3.83;;;2.33;;
13067;SDS011;6600;51.362;6.686;2023-02-20T16:37:23;7.17;;;2.90;;
13067;SDS011;6600;51.362;6.686;2023-02-20T16:39:49;6.67;;;3.33;;
13067;SDS011;6600;51.362;6.686;2023-02-20T16:42:26;5.13;;;2.77;;
13067;SDS011;6600;51.362;6.686;2023-02-20T16:44:53;3.30;;;2.47;;
13067;SDS011;6600;51.362;6.686;2023-02-20T16:47:21;3.50;;;2.50;;
13067;SDS011;6600;51.362;6.686;2023-02-20T16:49:48;3.77;;;2.40;;
13067;SDS011;6600;51.362;6.686;2023-02-20T16:52:16;4.63;;;2.43;;
13067;SDS011;6600;51.362;6.686;2023-02-20T16:54:54;4.20;;;2.50;;
13067;SDS011;6600;51.362;6.686;2023-02-20T16:57:21;4.57;;;2.43;;
13067;SDS011;6600;51.362;6.686;2023-02-20T16:59:48;5.43;;;2.93;;
13067;SDS011;6600;51.362;6.686;2023-02-20T17:02:20;3.73;;;2.67;;
13067;SDS011;6600;51.362;6.686;2023-02-20T17:04:48;4.10;;;3.00;;
13067;SDS011;6600;51.362;6.686;2023-02-20T17:07:14;5.57;;;3.23;;
13067;SDS011;6600;51.362;6.686;2023-02-20T17:09:39;6.37;;;3.23;;
13067;SDS011;6600;51.362;6.686;2023-02-20T17:12:05;8.00;;;3.10;;
13067;SDS011;6600;51.362;6.686;2023-02-20T17:14:30;2.87;;;2.47;;
13067;SDS011;6600;51.362;6.686;2023-02-20T17:16:56;3.47;;;2.60;;
13067;SDS011;6600;51.362;6.686;2023-02-20T17:19:22;3.93;;;2.70;;
13067;SDS011;6600;51.362;6.686;2023-02-20T17:21:48;3.93;;;2.97;;
13067;SDS011;6600;51.362;6.686;2023-02-20T17:24:14;4.10;;;2.90;;
13067;SDS011;6600;51.362;6.686;2023-02-20T17:26:40;4.80;;;2.97;;
13067;SDS011;6600;51.362;6.686;2023-02-20T17:29:06;5.13;;;3.13;;
13067;SDS011;6600;51.362;6.686;2023-02-20T17:31:32;4.83;;;3.23;;
13067;SDS011;6600;51.362;6.686;2023-02-20T17:33:57;5.10;;;2.70;;
13067;SDS011;6600;51.362;6.686;2023-02-20T17:36:22;6.33;;;2.93;;
13067;SDS011;6600;51.362;6.686;2023-02-20T17:38:47;7.50;;;3.97;;
13067;SDS011;6600;51.362;6.686;2023-02-20T17:41:14;6.43;;;3.13;;
13067;SDS011;6600;51.362;6.686;2023-02-20T17:43:40;5.47;;;3.20;;
13067;SDS011;6600;51.362;6.686;2023-02-20T17:46:06;4.53;;;2.37;;
13067;SDS011;6600;51.362;6.686;2023-02-20T17:48:31;5.73;;;4.10;;
13067;SDS011;6600;51.362;6.686;2023-02-20T17:50:56;6.43;;;3.07;;